Search for airport 
image banner adimage banner adimage banner ad
image banner ad

NV30 - Dixie Valley

Located in Fallon, United States

ICAO - NV30, IATA -

Data provided by Airmate  

General information

Coordinates: N39°57'60" W117°49'39"
Elevation is 3443 feet MSL.
Magnetic variation is 15° East
View others Airports in Nevada

Operational data

Special qualification required
Current time UTC:
Current local time:
Weather at : KLOL - Derby Field ( 64 km )
METAR: KLOL 092153Z AUTO VRB04KT 10SM CLR 20/M05 A2997 RMK AO2 SLP133 T02001050
View NOTAMs / SUP AIP / TFR affecting this airport [VIEW]
Communications frequencies: [VIEW]

Runways:

RWY identifierQFULength (ft)Width (ft)SurfaceLDA (ft)
16600060OTHER
34600060OTHER

Airport contact information

Address: Fallon United States

Satellite view of NV30